createdAt,value
2019-03-05T17:24:22.976Z,64.40
2019-03-05T17:29:25.018Z,65.08
2019-03-05T17:34:27.008Z,65.77
2019-03-05T17:39:29.824Z,66.00
2019-03-05T17:44:31.815Z,66.60
2019-03-05T17:49:33.819Z,67.22
2019-03-05T17:54:36.199Z,68.13
2019-03-05T17:59:38.443Z,68.86
2019-03-05T18:04:40.523Z,69.02
2019-03-05T18:09:42.591Z,70.05
2019-03-05T18:14:44.645Z,70.82
2019-03-05T18:19:46.711Z,71.78
2019-03-05T18:24:48.734Z,72.71
2019-03-05T18:29:51.126Z,72.97
2019-03-05T18:34:53.248Z,73.78
2019-03-05T18:39:55.288Z,75.57
2019-03-05T18:44:57.480Z,75.99
2019-03-05T18:49:59.525Z,76.61
2019-03-05T18:55:01.879Z,76.69
2019-03-05T19:00:05.095Z,76.74
2019-03-05T19:05:08.044Z,77.78
2019-03-05T19:10:12.457Z,77.08
2019-03-05T19:15:17.143Z,77.19
2019-03-05T19:20:20.820Z,77.22
2019-03-05T19:25:25.056Z,77.22
2019-03-05T19:30:29.443Z,77.44
2019-03-05T19:35:31.725Z,77.80
2019-03-05T19:40:34.234Z,78.57
2019-03-05T19:45:36.264Z,77.98
2019-03-05T19:50:38.381Z,78.43
2019-03-05T19:55:40.426Z,78.33
2019-03-05T20:00:51.685Z,79.10
2019-03-05T20:05:54.158Z,78.87
2019-03-05T20:10:56.569Z,78.90
2019-03-05T20:16:08.073Z,79.66
2019-03-05T20:21:10.629Z,79.73
2019-03-05T20:26:13.098Z,80.47
2019-03-05T20:31:15.159Z,80.15
2019-03-05T20:36:17.649Z,80.44
2019-03-05T20:41:20.070Z,81.12
2019-03-05T20:46:24.700Z,80.62
2019-03-05T20:51:26.737Z,81.33
2019-03-05T20:56:29.265Z,81.00
2019-03-05T21:01:31.525Z,81.37
2019-03-05T21:06:33.619Z,81.63
2019-03-05T21:11:35.823Z,81.11
2019-03-05T21:16:37.890Z,82.05
2019-03-05T21:21:40.000Z,81.92
2019-03-05T21:26:42.176Z,81.93
2019-03-05T21:31:44.247Z,82.02
2019-03-05T21:36:46.385Z,82.04
2019-03-05T21:41:48.549Z,82.24
2019-03-05T21:46:50.634Z,81.98
2019-03-05T21:51:53.052Z,82.20
2019-03-05T21:56:56.861Z,82.56
2019-03-05T22:01:59.123Z,82.77
2019-03-05T22:07:01.311Z,82.65
2019-03-05T22:12:04.335Z,82.84
2019-03-05T22:17:06.706Z,82.95
2019-03-05T22:22:08.957Z,83.33
2019-03-05T22:27:11.025Z,83.37
2019-03-05T22:32:13.425Z,83.54
2019-03-05T22:37:15.481Z,83.35
2019-03-05T22:42:17.537Z,83.97
2019-03-05T22:47:19.629Z,83.42
2019-03-05T22:52:22.005Z,83.98
2019-03-05T22:57:24.042Z,83.92
2019-03-05T23:02:26.287Z,84.11
2019-03-05T23:07:28.379Z,83.91
2019-03-05T23:12:30.540Z,83.45
2019-03-05T23:17:33.002Z,83.72
2019-03-05T23:22:36.766Z,84.25
2019-03-05T23:27:38.879Z,84.26
2019-03-05T23:32:40.994Z,83.96
2019-03-05T23:37:43.381Z,84.62
2019-03-05T23:42:45.582Z,84.74
2019-03-05T23:47:47.651Z,84.51
2019-03-05T23:52:49.782Z,84.90
2019-03-05T23:57:51.827Z,84.36
